Greenview, CA (96037)

5:55 PM PDT on August 03, 2015 (GMT -0700)
KCAETNA3 | | Change Station
CLOSE
Current Station
Personal Weather Station
Location: Island Rd, Scott Valley, CA
Elevation: 2728 ft
Nearby Weather Stations
Active Advisory: Fire Weather Warning

Elev 2728 ft 41.55 °N, 122.85 °W | Updated 54 seconds ago

Partly Cloudy
Partly Cloudy
89.3 °F
Feels Like 87 °F
N
1.0
Wind Variable Wind from North
Gusts 5.0 mph

Today
High -- | Low -- °F
--% Chance of Precip.
Yesterday
High -- | Low -- °F
Precip. -- in
6:08 AM 8:26 PM
Waning Gibbous, 82% visible
Pressure 29.83 in
Visibility 10.0 miles
Clouds Clear
Heat Index 87 °F
Dew Point 52 °F
Humidity 28%
Rainfall 0.00 in
Snow Depth Not available.
UV 5 out of 12
Pollen 4.10 out of 12
Air Quality Not available.
Flu Activity Not available.
METAR KSIY 032353Z AUTO 17009G15KT 140V200 10SM CLR 33/08 A2988 RMK AO2 SLP100 T03330078 10344 20267 57017 TSNO

More Conditions Fewer Conditions

Pressure 29.83 in
Visibility 10.0 miles
Clouds Clear
Heat Index 87 °F
Dew Point 52 °F
Humidity 28%
Rainfall 0.00 in
Snow Depth Not available.
UV 5 out of 12
Pollen 4.10 out of 12
Air Quality Not available.
Flu Activity Not available.
METAR KSIY 032353Z AUTO 17009G15KT 140V200 10SM CLR 33/08 A2988 RMK AO2 SLP100 T03330078 10344 20267 57017 TSNO

More Conditions Fewer Conditions

10-Day Weather Forecast

×

Almanac

Astronomy

Aug. 03, 2015 Rise Set
Actual Time
Civil Twilight
Nautical Twilight
Astronomical Twilight
Moon
Length of Visible Light
Length of Day
Tomorrow will be .
, % of the Moon is Illuminated

Today's Extremes

State Highs State Lows

Community

WunderPhotos

Upload Photos

1,843,797 photos uploaded!

WunderBlogs® & News

Nearby

Air Quality

  Air Quality AQ Index Pollutant
Not available.

Snow Depth

Station Depth Elevation

Earthquake Activity

City Distance Mag. Time & Date
Minimum magnitude displayed is 2.5.

Coastal Water Temperatures

Place Temperature

Stations

Nearby Weather Stations

Station Location Temp. Windchill Dew Point Humidity Wind Precip. Elev Updated Type
                   
Fire Weather Warning
Statement as of 2:54 PM PDT on August 03, 2015

... Red flag warning remains in effect until 11 PM PDT this
evening...

* thunderstorms: scattered thunderstorms are expected to develop
over the mountains of western Siskiyou County this afternoon
and continue into the evening.

* Impacts: increasing thunderstorm activity will create erratic
fire behavior.

* Affected area:
in northern CA... fire weather zone 280.

* Counties affected: Siskiyou.

Precautionary/preparedness actions...

A red flag warning means that extreme fire conditions are
occurring or imminent.



Visit US at www.Weather.Gov/Medford